ローマ/フィウミチーノ の空港の天気 - METARとTAF

ローマ・レオナルド・ダ・ビンチ国際空港 ( LIRF / FCO ) - イタリア ローマ
飛行場実況気象(Metar)
観測時間10/19 16:20 CEST (10/19 14:20 UTC)
風向・風速西 4m/s
視程10km以上
天気現象
なし
気温20℃
湿度56%
気圧1027hPa
METARLIRF 191420Z 27008KT CAVOK 20/11 Q1027 NOSIG
過去の天気等 Google飛行場航空写真 Wunderground天気予報

過去48時間のMETAR

飛行場予報(TAF)
発表時間: 10/19 13:00 CEST (10/19 11:00 UTC)
予報対象時間: 19日14時 CEST ~ 20日20時 CEST
風向・風速西 5m/s
視程10km以上
なし
19日18時 CEST ~ 19日20時 CEST に徐々に
風向・風速不定 3m/s
20日12時 CEST ~ 20日14時 CEST に徐々に
風向・風速西南西 5m/s
TAF LIRF 191100Z 1912/2018 26010KT CAVOK
BECMG 1916/1918 VRB05KT
BECMG 2010/2012 25010KT